createdAt,value
2019-06-01T00:03:06.055Z,97.72
2019-06-01T00:09:35.767Z,97.42
2019-06-01T00:19:39.935Z,97.41
2019-06-01T00:25:57.564Z,99.17
2019-06-01T00:32:15.421Z,98.66
2019-06-01T00:38:36.510Z,97.79
2019-06-01T00:45:09.597Z,98.96
2019-06-01T00:51:30.312Z,98.39
2019-06-01T00:57:49.714Z,98.63
2019-06-01T01:04:08.222Z,98.26
2019-06-01T01:10:38.739Z,98.56
2019-06-01T01:20:43.041Z,99.47
2019-06-01T01:27:00.531Z,98.78
2019-06-01T01:33:18.613Z,98.40
2019-06-01T01:39:36.527Z,98.44
2019-06-01T01:46:06.650Z,99.23
2019-06-01T01:52:26.398Z,98.46
2019-06-01T01:58:44.263Z,99.19
2019-06-01T02:05:13.872Z,99.85
2019-06-01T02:11:30.796Z,99.69
2019-06-01T02:21:35.770Z,99.10
2019-06-01T02:27:55.622Z,99.53
2019-06-01T02:34:13.486Z,99.89
2019-06-01T02:40:42.932Z,98.62
2019-06-01T02:47:01.547Z,99.28
2019-06-01T02:53:19.232Z,99.41
2019-06-01T02:59:36.660Z,98.99
2019-06-01T03:06:08.622Z,99.84
2019-06-01T03:12:27.883Z,99.42
2019-06-01T03:22:33.449Z,99.28
2019-06-01T03:28:53.700Z,98.69
2019-06-01T03:35:13.162Z,98.82
2019-06-01T03:41:45.693Z,99.22
2019-06-01T03:48:04.634Z,100.00
2019-06-01T03:54:22.131Z,100.00
2019-06-01T04:00:39.813Z,100.00
2019-06-01T04:07:10.737Z,100.00
2019-06-01T04:13:28.827Z,100.00
2019-06-01T04:23:31.950Z,99.71
2019-06-01T04:29:50.759Z,100.00
2019-06-01T04:36:07.494Z,100.00
2019-06-01T04:42:37.833Z,99.99
2019-06-01T04:48:57.408Z,99.84
2019-06-01T04:55:15.728Z,99.54
2019-06-01T05:01:33.691Z,100.00
2019-06-01T05:08:05.184Z,99.99
2019-06-01T05:14:24.147Z,99.35
2019-06-01T05:24:30.169Z,98.68
2019-06-01T05:30:48.402Z,98.69
2019-06-01T05:37:06.345Z,98.49
2019-06-01T05:43:36.818Z,98.52
2019-06-01T05:49:54.924Z,98.89
2019-06-01T05:55:36.935Z,99.37
2019-06-01T06:01:54.986Z,99.71
2019-06-01T06:08:25.393Z,99.54
2019-06-01T06:14:42.945Z,99.52
2019-06-01T06:24:48.983Z,99.77
2019-06-01T06:31:07.066Z,99.62
2019-06-01T06:37:24.716Z,99.76
2019-06-01T06:43:55.152Z,99.50
2019-06-01T06:50:17.905Z,99.27
2019-06-01T06:56:00.276Z,98.83
2019-06-01T07:02:18.818Z,98.54
2019-06-01T07:08:49.211Z,98.83
2019-06-01T07:15:07.721Z,99.15
2019-06-01T07:25:12.984Z,98.74
2019-06-01T07:31:32.497Z,98.91
2019-06-01T07:37:53.191Z,98.41
2019-06-01T07:43:47.696Z,97.59
2019-06-01T07:50:09.735Z,96.96
2019-06-01T07:56:30.350Z,96.68
2019-06-01T08:02:47.917Z,96.45
2019-06-01T08:09:22.044Z,93.87
2019-06-01T08:15:40.660Z,92.43
2019-06-01T08:25:46.555Z,90.92
2019-06-01T08:32:05.039Z,87.41
2019-06-01T08:38:25.676Z,85.79
2019-06-01T08:44:20.227Z,84.70
2019-06-01T08:50:38.804Z,83.31
2019-06-01T08:56:57.039Z,81.28
2019-06-01T09:03:15.171Z,79.13
2019-06-01T09:09:45.373Z,79.12
2019-06-01T09:16:07.181Z,78.04
2019-06-01T09:26:12.586Z,73.14
2019-06-01T09:32:30.571Z,73.88
2019-06-01T09:38:48.394Z,74.54
2019-06-01T09:45:19.074Z,75.22
2019-06-01T09:51:37.810Z,75.77
2019-06-01T09:57:55.734Z,73.73
2019-06-01T10:04:14.027Z,73.81
2019-06-01T10:10:44.419Z,70.94
2019-06-01T10:17:02.159Z,69.95
2019-06-01T10:27:08.191Z,70.09
2019-06-01T10:33:39.044Z,70.30
2019-06-01T10:39:57.467Z,68.62
2019-06-01T10:46:15.714Z,69.34
2019-06-01T10:52:36.313Z,68.55
2019-06-01T10:59:07.892Z,68.14
2019-06-01T11:05:26.112Z,67.10
2019-06-01T11:11:07.922Z,65.39
2019-06-01T11:17:26.374Z,65.91
2019-06-01T11:27:44.012Z,66.57
2019-06-01T11:34:14.679Z,65.17
2019-06-01T11:40:32.284Z,63.06
2019-06-01T11:46:50.000Z,64.27
2019-06-01T11:53:08.198Z,63.50
2019-06-01T11:59:25.767Z,62.83
2019-06-01T12:05:46.074Z,60.74
2019-06-01T12:12:15.587Z,59.73
2019-06-01T12:18:34.203Z,60.97
2019-06-01T12:28:39.539Z,60.60
2019-06-01T12:34:56.488Z,63.37
2019-06-01T12:41:26.134Z,61.41
2019-06-01T12:47:43.927Z,59.33
2019-06-01T12:54:01.837Z,59.24
2019-06-01T12:59:45.173Z,60.28
2019-06-01T13:06:03.066Z,58.37
2019-06-01T13:12:33.322Z,58.34
2019-06-01T13:18:51.757Z,57.57
2019-06-01T13:28:56.453Z,55.17
2019-06-01T13:35:16.821Z,54.95
2019-06-01T13:41:34.189Z,53.58
2019-06-01T13:48:04.398Z,52.93
2019-06-01T13:54:22.390Z,49.94
2019-06-01T14:00:04.424Z,49.21
2019-06-01T14:06:22.453Z,49.16
2019-06-01T14:12:53.486Z,49.59
2019-06-01T14:19:11.281Z,50.79
2019-06-01T14:29:15.973Z,47.46
2019-06-01T14:35:35.652Z,47.52
2019-06-01T14:41:51.537Z,46.35
2019-06-01T14:48:20.827Z,47.23
2019-06-01T14:54:37.552Z,45.76
2019-06-01T15:00:20.667Z,46.29
2019-06-01T15:06:37.690Z,44.50
2019-06-01T15:13:07.893Z,43.66
2019-06-01T15:19:24.658Z,43.18
2019-06-01T15:25:41.578Z,44.03
2019-06-01T15:31:47.846Z,41.50
2019-06-01T15:38:17.105Z,40.60
2019-06-01T15:44:34.127Z,41.27
2019-06-01T15:50:52.108Z,40.27
2019-06-01T15:57:09.014Z,39.85
2019-06-01T16:03:38.642Z,39.57
2019-06-01T16:09:55.493Z,40.12
2019-06-01T16:16:13.019Z,41.75
2019-06-01T16:22:32.417Z,40.56
2019-06-01T16:25:35.908Z,41.20
2019-06-01T16:31:20.537Z,40.87
2019-06-01T16:37:37.962Z,41.60
2019-06-01T16:44:07.487Z,40.79
2019-06-01T16:50:25.073Z,40.82
2019-06-01T16:56:07.525Z,41.16
2019-06-01T17:02:26.095Z,42.26
2019-06-01T17:08:56.661Z,41.90
2019-06-01T17:15:15.638Z,42.70
2019-06-01T17:21:33.734Z,41.16
2019-06-01T17:31:53.384Z,43.74
2019-06-01T17:37:56.753Z,46.64
2019-06-01T17:44:26.143Z,47.66
2019-06-01T17:50:43.947Z,49.85
2019-06-01T17:56:25.716Z,51.54
2019-06-01T18:02:43.494Z,51.24
2019-06-01T18:09:01.948Z,52.79
2019-06-01T18:15:31.618Z,55.02
2019-06-01T18:21:48.906Z,56.33
2019-06-01T18:31:53.481Z,57.30
2019-06-01T18:38:12.796Z,58.08
2019-06-01T18:44:30.020Z,58.33
2019-06-01T18:51:00.414Z,61.12
2019-06-01T18:56:42.791Z,61.48
2019-06-01T19:03:00.807Z,62.90
2019-06-01T19:09:17.624Z,64.05
2019-06-01T19:15:47.227Z,65.32
2019-06-01T19:22:06.300Z,65.98
2019-06-01T19:32:21.076Z,67.73
2019-06-01T19:38:39.569Z,68.77
2019-06-01T19:44:59.298Z,69.79
2019-06-01T19:51:28.706Z,71.45
2019-06-01T19:57:17.966Z,72.29
2019-06-01T20:03:31.902Z,73.00
2019-06-01T20:09:49.122Z,74.27
2019-06-01T20:16:20.226Z,74.97
2019-06-01T20:22:37.932Z,76.85
2019-06-01T20:32:41.194Z,77.65
2019-06-01T20:39:03.877Z,78.60
2019-06-01T20:45:18.769Z,79.57
2019-06-01T20:51:48.405Z,79.98
2019-06-01T20:57:42.849Z,81.62
2019-06-01T21:04:00.402Z,81.21
2019-06-01T21:10:20.416Z,82.65
2019-06-01T21:16:48.964Z,82.98
2019-06-01T21:23:06.531Z,84.42
2019-06-01T21:33:10.320Z,84.58
2019-06-01T21:39:27.762Z,85.87
2019-06-01T21:45:45.441Z,85.43
2019-06-01T21:52:15.786Z,85.70
2019-06-01T21:58:12.404Z,86.58
2019-06-01T22:04:30.923Z,86.69
2019-06-01T22:10:50.173Z,87.42
2019-06-01T22:17:20.351Z,87.49
2019-06-01T22:23:38.697Z,88.52
2019-06-01T22:33:42.314Z,89.08
2019-06-01T22:39:59.976Z,89.95
2019-06-01T22:46:17.435Z,90.07
2019-06-01T22:52:46.635Z,90.06
2019-06-01T22:58:41.289Z,90.53
2019-06-01T23:04:59.991Z,90.83
2019-06-01T23:11:16.741Z,91.10
2019-06-01T23:17:46.027Z,90.71
2019-06-01T23:24:03.765Z,90.98
2019-06-01T23:34:07.971Z,91.78
2019-06-01T23:40:26.549Z,92.45
2019-06-01T23:46:43.643Z,92.64
2019-06-01T23:53:14.125Z,92.32
2019-06-01T23:59:19.679Z,93.00
